• Join FlightAware (Why Join?)
  • Login
  • US Flag 
Rudolph Flight #1: Arrived! 
04:23AM EST


 

Airport Tracker/Info


-or-


 

Live Flight TrackerFlight Track Log ✈ VH-NXO ✈ 01-May-2012 ✈ YPPH / PER - YFDF / KFE

Flight Track Log - Related Links

Times and Time Zones

All times are in EDT time to prevent confusion due to time zone crossing. See the VH-NXO flight status page for this flight to view local times or setup timezone preferences in your user account.

Time Position Orientation Groundspeed Altitude Reporting Facility
EDT Latitude Longitude Course Direction KTS MPH feet Rate Location/Type
01:39AM -31.9285 115.9676 349° North 160 184 1,100  Level Aus ATC (RADAR)
01:41AM -31.8593 115.9519 278° West 231 266 4,300 2,280 Climbing Aus ATC (RADAR)
01:42AM -31.8487 115.8668 278° West 272 313 6,800 2,580 Climbing Aus ATC (RADAR)
01:42AM -31.8426 115.8136 277° West 282 325 8,400 2,940 Climbing Aus ATC (RADAR)
01:43AM -31.8370 115.7586 279° West 291 335 10,200 3,060 Climbing Aus ATC (RADAR)
01:44AM -31.8262 115.6799 356° North 293 337 12,700 2,040 Climbing Aus ATC (RADAR)
01:46AM -31.6340 115.6658 North 376 433 16,400 1,800 Climbing Aus ATC (RADAR)
01:47AM -31.5329 115.6807 North 405 466 18,300 2,100 Climbing Aus ATC (RADAR)
01:47AM -31.4487 115.6933 North 409 471 19,900 1,920 Climbing Aus ATC (RADAR)
01:48AM -31.3718 115.7048 North 417 480 21,100 1,500 Climbing Aus ATC (RADAR)
01:49AM -31.2726 115.7196 North 435 501 22,200 1,560 Climbing Aus ATC (RADAR)
01:51AM -31.0786 115.7489 North 448 516 25,000 1,500 Climbing Aus ATC (RADAR)
01:52AM -30.9521 115.7676 North 462 532 26,200 1,200 Climbing Aus ATC (RADAR)
01:52AM -30.8553 115.7819 North 472 543 27,100 1,200 Climbing Aus ATC (RADAR)
01:53AM -30.7676 115.7946 North 476 548 27,900 1,200 Climbing Aus ATC (RADAR)
01:54AM -30.6680 115.8092 North 484 557 28,800 1,140 Climbing Aus ATC (RADAR)
01:55AM -30.4463 115.8425 North 490 564 30,700 1,080 Climbing Aus ATC (RADAR)
01:56AM -30.3787 115.8518 North 492 566 31,200 1,200 Climbing Aus ATC (RADAR)
01:57AM -30.2656 115.8681 North 494 568 32,300 960 Climbing Aus ATC (RADAR)
01:58AM -30.1298 115.8878 North 497 572 33,000 720 Climbing Aus ATC (RADAR)
01:58AM -30.0610 115.8985 North 501 577 33,400 240 Climbing Aus ATC (RADAR)
01:59AM -29.9584 115.9127 North 498 573 33,300 -60 Descending Aus ATC (RADAR)
02:00AM -29.7873 115.9374 North 497 572 33,300  Level Aus ATC (RADAR)
02:01AM -29.6965 115.9504 North 493 567 33,300 -180 Level Aus ATC (RADAR)
02:01AM -29.6164 115.9639 North 501 577 33,100 -180 Descending Aus ATC (RADAR)
02:02AM -29.4912 115.9812 North 502 578 33,100  Level Aus ATC (RADAR)
02:03AM -29.3661 115.9984 North 497 572 33,100  Level Aus ATC (RADAR)
02:04AM -29.2629 116.0124 12° North 498 573 33,100  Level Aus ATC (RADAR)
02:05AM -29.1824 116.0316 25° Northeast 505 581 33,100  Level Aus ATC (RADAR)
02:06AM -29.0381 116.1075 23° Northeast 530 610 33,100  Level Aus ATC (RADAR)
02:07AM -28.9275 116.1617 23° Northeast 524 603 33,100  Level Aus ATC (RADAR)
02:07AM -28.8173 116.2156 26° Northeast 519 597 33,100  Level Aus ATC (RADAR)
02:08AM -28.7405 116.2586 22° Northeast 523 602 33,100  Level Aus ATC (RADAR)
02:09AM -28.6301 116.3093 23° Northeast 521 600 33,100  Level Aus ATC (RADAR)
02:10AM -28.5202 116.3634 24° Northeast 522 601 33,100  Level Aus ATC (RADAR)
02:11AM -28.3889 116.4291 24° Northeast 517 595 33,100  Level Aus ATC (RADAR)
02:12AM -28.2570 116.4950 24° Northeast 521 600 33,100  Level Aus ATC (RADAR)
02:12AM -28.1482 116.5508 24° Northeast 520 598 33,100  Level Aus ATC (RADAR)
02:13AM -28.0834 116.5833 23° Northeast 513 590 33,100  Level Aus ATC (RADAR)
02:14AM -28.0069 116.6208 23° Northeast 515 593 33,100  Level Aus ATC (RADAR)
02:14AM -27.9084 116.6673 24° Northeast 515 593 33,100  Level Aus ATC (RADAR)
02:15AM -27.8207 116.7105 24° Northeast 518 596 33,100  Level Aus ATC (RADAR)
02:16AM -27.7344 116.7547 24° Northeast 515 593 33,100 -60 Level Aus ATC (RADAR)
02:18AM -27.3842 116.9283 24° Northeast 33,000 -60 Descending Aus ATC (Calculated)
02:19AM -27.3060 116.9669 21° North 33,000  Level Aus ATC (Calculated)
02:23AM -26.8715 117.1549 21° North  Level FlightAware Approximate
02:28AM -26.0966 117.4863 21° North 33,000  Level Aus ATC (Calculated)
02:29AM -25.9781 117.5366 21° North  Level FlightAware Approximate
02:30AM -25.8720 117.5815 21° North  Level FlightAware Approximate
02:31AM -25.7659 117.6264 21° North  Level FlightAware Approximate
02:36AM -24.9650 117.9621 290° West 33,000  Level Aus ATC (Calculated)
02:36AM -24.9650 117.9620 21° North 33,000 -2,820 Level Aus ATC (Calculated)
02:40AM -24.5387 118.1388 19° North 23,900 -2,340 Descending Aus ATC (Calculated)
02:40AM -24.4447 118.1736 19° North 23,900  Level Aus ATC (Calculated)
02:43AM -24.1626 118.2778 19° North 23,900  Level Aus ATC (Calculated)
02:46AM -23.6923 118.4505 18° North 23,900  Level Aus ATC (Calculated)
02:46AM -23.6923 118.4505 21° North 23,900  Level Aus ATC (Calculated)
02:51AM -22.9872 118.7371 21° North -4,560 Descending Aus ATC (Calculated)